createdAt,value
2023-01-27T00:01:08.033Z,37.40
2023-01-27T00:03:36.313Z,37.40
2023-01-27T00:06:04.595Z,37.50
2023-01-27T00:08:33.922Z,37.40
2023-01-27T00:11:20.314Z,37.50
2023-01-27T00:13:48.588Z,37.40
2023-01-27T00:16:16.662Z,37.40
2023-01-27T00:18:44.699Z,37.60
2023-01-27T00:21:30.329Z,37.80
2023-01-27T00:24:17.147Z,38.10
2023-01-27T00:26:45.100Z,38.40
2023-01-27T00:29:13.689Z,38.40
2023-01-27T00:31:58.948Z,38.70
2023-01-27T00:34:26.931Z,38.60
2023-01-27T00:36:54.830Z,38.50
2023-01-27T00:39:24.104Z,38.80
2023-01-27T00:41:52.041Z,39.20
2023-01-27T00:44:20.046Z,39.30
2023-01-27T00:46:48.034Z,39.40
2023-01-27T00:49:16.057Z,39.10
2023-01-27T00:51:43.984Z,38.90
2023-01-27T00:54:12.232Z,39.20
2023-01-27T00:56:41.732Z,39.40
2023-01-27T00:59:11.782Z,39.30
2023-01-27T01:01:39.776Z,39.10
2023-01-27T01:04:07.778Z,39.40
2023-01-27T01:06:36.946Z,39.90
2023-01-27T01:09:05.025Z,39.80
2023-01-27T01:11:32.978Z,40.00
2023-01-27T01:14:02.259Z,40.10
2023-01-27T01:16:30.255Z,40.30
2023-01-27T01:18:59.222Z,40.20
2023-01-27T01:21:27.268Z,40.00
2023-01-27T01:23:55.411Z,40.00
2023-01-27T01:26:23.565Z,39.90
2023-01-27T01:28:51.479Z,40.20
2023-01-27T01:31:21.469Z,40.60
2023-01-27T01:33:49.835Z,41.00
2023-01-27T01:36:20.664Z,41.00
2023-01-27T01:38:48.746Z,41.20
2023-01-27T01:41:19.299Z,42.30
2023-01-27T01:43:48.423Z,42.50
2023-01-27T01:46:16.542Z,42.40
2023-01-27T01:48:48.403Z,42.40
2023-01-27T01:51:21.276Z,42.00
2023-01-27T01:53:54.821Z,41.50
2023-01-27T01:56:26.895Z,41.20
2023-01-27T01:58:57.600Z,40.80
2023-01-27T02:01:25.567Z,40.40
2023-01-27T02:03:57.933Z,40.10
2023-01-27T02:06:26.440Z,40.30
2023-01-27T02:08:56.098Z,40.10
2023-01-27T02:11:24.281Z,40.00
2023-01-27T02:13:53.596Z,39.90
2023-01-27T02:16:21.538Z,39.90
2023-01-27T02:18:50.201Z,40.10
2023-01-27T02:21:19.797Z,40.20
2023-01-27T02:23:57.972Z,40.40
2023-01-27T02:26:30.918Z,41.10
2023-01-27T02:29:00.715Z,41.50
2023-01-27T02:31:29.209Z,41.30
2023-01-27T02:34:01.872Z,41.60
2023-01-27T02:36:33.161Z,41.30
2023-01-27T02:39:02.755Z,41.00
2023-01-27T02:41:35.483Z,40.60
2023-01-27T02:44:04.146Z,40.30
2023-01-27T02:46:34.081Z,40.30
2023-01-27T02:49:03.722Z,40.40
2023-01-27T02:51:31.939Z,40.40
2023-01-27T02:54:01.054Z,40.20
2023-01-27T02:56:29.543Z,40.30
2023-01-27T02:59:00.101Z,40.30
2023-01-27T03:01:34.392Z,40.40
2023-01-27T03:04:02.398Z,40.00
2023-01-27T03:06:30.350Z,39.60
2023-01-27T03:08:58.404Z,39.60
2023-01-27T03:11:40.381Z,39.40
2023-01-27T03:14:10.331Z,39.70
2023-01-27T03:16:55.999Z,39.70
2023-01-27T03:19:24.012Z,39.70
2023-01-27T03:21:52.745Z,39.80
2023-01-27T03:24:22.371Z,40.10
2023-01-27T03:26:55.588Z,40.00
2023-01-27T03:29:54.386Z,39.80
2023-01-27T03:32:22.646Z,39.70
2023-01-27T03:35:09.528Z,39.80
2023-01-27T03:37:55.767Z,40.00
2023-01-27T03:40:40.955Z,39.80
2023-01-27T03:43:26.367Z,40.00
2023-01-27T03:46:13.309Z,39.90
2023-01-27T03:48:41.289Z,40.50
2023-01-27T03:51:11.076Z,41.30
2023-01-27T03:53:39.366Z,41.20
2023-01-27T03:56:08.315Z,41.70
2023-01-27T03:58:37.976Z,41.80
2023-01-27T04:01:13.495Z,42.00
2023-01-27T04:03:59.342Z,41.60
2023-01-27T04:06:46.617Z,41.40
2023-01-27T04:09:19.275Z,40.50
2023-01-27T04:11:56.544Z,41.10
2023-01-27T04:14:26.842Z,41.10
2023-01-27T04:17:01.436Z,40.60
2023-01-27T04:19:31.948Z,39.90
2023-01-27T04:22:01.116Z,40.00
2023-01-27T04:24:29.591Z,39.40
2023-01-27T04:26:59.391Z,39.50
2023-01-27T04:29:29.186Z,39.10
2023-01-27T04:31:59.227Z,38.90
2023-01-27T04:34:28.195Z,38.80
2023-01-27T04:36:56.906Z,38.50
2023-01-27T04:39:25.299Z,38.40
2023-01-27T04:41:53.601Z,38.70
2023-01-27T04:44:21.499Z,38.80
2023-01-27T04:46:49.862Z,38.80
2023-01-27T04:49:19.478Z,38.60
2023-01-27T04:51:47.716Z,38.70
2023-01-27T04:54:16.841Z,38.60
2023-01-27T04:56:58.609Z,38.80
2023-01-27T04:59:26.737Z,39.60
2023-01-27T05:01:54.746Z,39.80
2023-01-27T05:04:26.164Z,40.30
2023-01-27T05:06:54.455Z,41.00
2023-01-27T05:09:22.513Z,40.50
2023-01-27T05:11:50.652Z,40.10
2023-01-27T05:14:18.686Z,41.00
2023-01-27T05:16:46.739Z,41.00
2023-01-27T05:19:14.678Z,41.70
2023-01-27T05:21:44.392Z,41.80
2023-01-27T05:24:12.499Z,41.70
2023-01-27T05:26:40.646Z,41.80
2023-01-27T05:29:10.023Z,41.00
2023-01-27T05:31:38.328Z,40.60
2023-01-27T05:34:06.333Z,41.00
2023-01-27T05:36:34.371Z,41.60
2023-01-27T05:39:03.706Z,41.80
2023-01-27T05:41:32.186Z,41.70
2023-01-27T05:44:00.489Z,41.20
2023-01-27T05:46:30.338Z,40.90
2023-01-27T05:49:01.975Z,40.30
2023-01-27T05:51:31.856Z,40.10
2023-01-27T05:54:00.154Z,40.40
2023-01-27T05:56:29.473Z,40.20
2023-01-27T05:58:58.864Z,40.00
2023-01-27T06:01:30.243Z,39.90
2023-01-27T06:03:58.803Z,39.60
2023-01-27T06:06:28.686Z,39.50
2023-01-27T06:08:56.624Z,39.70
2023-01-27T06:11:25.084Z,39.80
2023-01-27T06:13:55.237Z,39.50
2023-01-27T06:16:23.952Z,39.60
2023-01-27T06:18:52.014Z,39.80
2023-01-27T06:21:20.530Z,39.60
2023-01-27T06:23:48.712Z,39.40
2023-01-27T06:26:19.289Z,39.10
2023-01-27T06:28:47.278Z,38.40
2023-01-27T06:31:18.506Z,38.70
2023-01-27T06:33:46.781Z,38.70
2023-01-27T06:36:16.764Z,38.10
2023-01-27T06:38:45.508Z,38.10
2023-01-27T06:41:13.493Z,37.80
2023-01-27T06:43:41.470Z,37.00
2023-01-27T06:46:09.661Z,37.10
2023-01-27T06:48:39.076Z,37.60
2023-01-27T06:51:07.753Z,37.70
2023-01-27T06:53:37.318Z,37.50
2023-01-27T06:56:06.526Z,37.20
2023-01-27T06:58:34.469Z,37.00
2023-01-27T07:01:02.732Z,36.90
2023-01-27T07:03:31.400Z,37.10
2023-01-27T07:06:00.637Z,36.80
2023-01-27T07:08:28.694Z,36.70
2023-01-27T07:10:56.640Z,36.30
2023-01-27T07:13:24.722Z,36.40
2023-01-27T07:15:56.016Z,36.10
2023-01-27T07:18:24.086Z,36.00
2023-01-27T07:20:52.087Z,36.80
2023-01-27T07:23:21.785Z,36.90
2023-01-27T07:25:49.694Z,37.20
2023-01-27T07:28:17.849Z,37.60
2023-01-27T07:30:45.886Z,37.50
2023-01-27T07:33:15.330Z,37.70
2023-01-27T07:35:46.627Z,38.20
2023-01-27T07:38:14.560Z,38.30
2023-01-27T07:40:46.444Z,39.20
2023-01-27T07:43:14.423Z,39.10
2023-01-27T07:45:42.429Z,40.00
2023-01-27T07:48:12.093Z,40.00
2023-01-27T07:50:41.942Z,40.20
2023-01-27T07:53:11.191Z,40.60
2023-01-27T07:55:39.145Z,41.10
2023-01-27T07:58:08.581Z,41.40
2023-01-27T08:00:36.720Z,41.40
2023-01-27T08:03:05.968Z,41.70
2023-01-27T08:05:35.564Z,42.30
2023-01-27T08:08:04.645Z,42.60
2023-01-27T08:10:32.686Z,42.40
2023-01-27T08:13:00.614Z,42.70
2023-01-27T08:15:29.893Z,42.70
2023-01-27T08:17:59.123Z,43.70
2023-01-27T08:20:28.473Z,43.00
2023-01-27T08:22:56.444Z,43.10
2023-01-27T08:25:24.848Z,42.70
2023-01-27T08:27:54.219Z,42.40
2023-01-27T08:30:22.712Z,42.00
2023-01-27T08:32:52.063Z,42.60
2023-01-27T08:35:20.043Z,42.00
2023-01-27T08:37:48.871Z,42.50
2023-01-27T08:40:17.181Z,42.00
2023-01-27T08:42:45.131Z,42.20
2023-01-27T08:45:13.592Z,42.20
2023-01-27T08:47:41.581Z,42.50
2023-01-27T08:50:12.590Z,42.80
2023-01-27T08:52:40.900Z,42.20
2023-01-27T08:55:09.120Z,41.90
2023-01-27T08:57:37.333Z,42.90
2023-01-27T09:00:07.017Z,41.80
2023-01-27T09:02:35.309Z,41.10
2023-01-27T09:05:03.353Z,40.40
2023-01-27T09:07:33.208Z,40.40
2023-01-27T09:10:13.652Z,39.70
2023-01-27T09:12:43.964Z,39.80
2023-01-27T09:15:13.373Z,39.70
2023-01-27T09:17:43.105Z,39.70
2023-01-27T09:20:12.956Z,39.80
2023-01-27T09:22:43.116Z,39.20
2023-01-27T09:25:18.103Z,38.40
2023-01-27T09:27:46.049Z,38.50
2023-01-27T09:30:17.735Z,38.30
2023-01-27T09:32:45.837Z,38.30
2023-01-27T09:35:14.833Z,38.40
2023-01-27T09:37:48.345Z,38.80
2023-01-27T09:40:29.248Z,39.20
2023-01-27T09:43:33.593Z,39.30
2023-01-27T09:46:18.818Z,38.70
2023-01-27T09:49:04.838Z,39.10
2023-01-27T09:51:44.573Z,38.80
2023-01-27T09:54:49.319Z,39.00
2023-01-27T09:57:26.766Z,38.80
2023-01-27T10:00:08.767Z,39.00
2023-01-27T10:03:10.640Z,38.60
2023-01-27T10:06:04.010Z,38.30
2023-01-27T10:08:52.856Z,39.00
2023-01-27T10:11:33.040Z,39.80
2023-01-27T10:14:12.900Z,39.60
2023-01-27T10:17:00.785Z,39.80
2023-01-27T10:19:45.497Z,39.60
2023-01-27T10:22:20.786Z,40.10
2023-01-27T10:25:03.634Z,40.60
2023-01-27T10:27:37.807Z,41.50
2023-01-27T10:30:14.972Z,42.20
2023-01-27T10:32:46.057Z,42.30
2023-01-27T10:35:20.843Z,42.20
2023-01-27T10:38:05.121Z,41.60
2023-01-27T10:40:41.316Z,40.60
2023-01-27T10:43:19.748Z,40.50
2023-01-27T10:45:57.001Z,40.20
2023-01-27T10:48:34.850Z,39.90
2023-01-27T10:51:07.154Z,40.50
2023-01-27T10:53:41.337Z,40.60
2023-01-27T10:56:13.075Z,41.00
2023-01-27T10:58:49.134Z,40.90
2023-01-27T11:01:22.489Z,40.20
2023-01-27T11:03:55.824Z,40.60
2023-01-27T11:06:26.046Z,40.00
2023-01-27T11:08:59.998Z,39.40
2023-01-27T11:11:47.091Z,38.80
2023-01-27T11:14:27.088Z,38.20
2023-01-27T11:16:59.320Z,38.70
2023-01-27T11:19:41.503Z,39.00
2023-01-27T11:22:21.919Z,38.90
2023-01-27T11:24:56.701Z,39.50
2023-01-27T11:27:35.553Z,40.30
2023-01-27T11:30:15.291Z,39.60
2023-01-27T11:32:53.508Z,39.40
2023-01-27T11:35:23.173Z,39.80
2023-01-27T11:37:58.295Z,40.70
2023-01-27T11:40:35.453Z,40.40
2023-01-27T11:43:04.889Z,40.70
2023-01-27T11:45:39.320Z,40.60
2023-01-27T11:48:13.869Z,40.90
2023-01-27T11:50:43.618Z,41.60
2023-01-27T11:53:17.830Z,41.90
2023-01-27T11:55:50.840Z,41.60
2023-01-27T11:58:24.755Z,40.90
2023-01-27T12:00:57.684Z,40.40
2023-01-27T12:03:38.120Z,40.70
2023-01-27T12:06:14.354Z,41.50
2023-01-27T12:08:44.988Z,41.40
2023-01-27T12:11:24.665Z,41.50
2023-01-27T12:13:58.234Z,42.00
2023-01-27T12:16:42.372Z,41.50
2023-01-27T12:19:24.214Z,42.40
2023-01-27T12:21:57.225Z,42.50
2023-01-27T12:24:29.717Z,42.20
2023-01-27T12:26:58.911Z,42.20
2023-01-27T12:29:29.402Z,42.00
2023-01-27T12:32:01.392Z,41.60
2023-01-27T12:34:33.703Z,41.90
2023-01-27T12:37:05.075Z,41.50
2023-01-27T12:39:41.365Z,42.40
2023-01-27T12:42:40.925Z,42.40
2023-01-27T12:45:25.522Z,42.50
2023-01-27T12:48:00.633Z,43.10
2023-01-27T12:50:30.749Z,43.60
2023-01-27T12:53:07.943Z,43.80
2023-01-27T12:55:39.718Z,43.50
2023-01-27T12:58:24.117Z,42.50
2023-01-27T13:00:52.106Z,42.10
2023-01-27T13:03:22.076Z,42.60
2023-01-27T13:05:55.387Z,42.50
2023-01-27T13:08:25.657Z,42.10
2023-01-27T13:10:56.887Z,41.50
2023-01-27T13:13:26.969Z,42.10
2023-01-27T13:15:58.438Z,41.90
2023-01-27T13:18:34.967Z,41.30
2023-01-27T13:21:12.535Z,41.00
2023-01-27T13:23:41.928Z,42.00
2023-01-27T13:26:15.271Z,41.90
2023-01-27T13:28:52.837Z,42.50
2023-01-27T13:31:36.277Z,43.10
2023-01-27T13:34:12.129Z,43.80
2023-01-27T13:36:43.337Z,43.50
2023-01-27T13:39:19.472Z,43.60
2023-01-27T13:41:52.684Z,44.00
2023-01-27T13:44:28.161Z,44.30
2023-01-27T13:47:02.038Z,44.50
2023-01-27T13:49:36.869Z,44.30
2023-01-27T13:52:07.126Z,44.00
2023-01-27T13:54:35.491Z,42.70
2023-01-27T13:57:19.114Z,42.00
2023-01-27T13:59:58.700Z,41.20
2023-01-27T14:02:44.604Z,41.40
2023-01-27T14:05:32.964Z,41.70
2023-01-27T14:08:13.693Z,42.50
2023-01-27T14:10:47.788Z,43.20
2023-01-27T14:13:30.757Z,43.50
2023-01-27T14:16:07.474Z,43.40
2023-01-27T14:18:38.451Z,42.80
2023-01-27T14:21:17.557Z,42.90
2023-01-27T14:23:56.312Z,43.80
2023-01-27T14:26:47.933Z,43.30
2023-01-27T14:29:27.345Z,43.60
2023-01-27T14:32:04.774Z,43.00
2023-01-27T14:34:44.979Z,43.50
2023-01-27T14:37:20.745Z,43.10
2023-01-27T14:40:01.173Z,43.00
2023-01-27T14:42:37.190Z,42.40
2023-01-27T14:45:14.095Z,42.40
2023-01-27T14:47:51.927Z,42.50
2023-01-27T14:50:29.420Z,42.70
2023-01-27T14:53:14.612Z,42.60
2023-01-27T14:55:49.554Z,42.50
2023-01-27T14:58:37.193Z,42.50
2023-01-27T15:01:15.453Z,41.90
2023-01-27T15:04:01.956Z,42.00
2023-01-27T15:06:39.373Z,41.70
2023-01-27T15:09:20.493Z,42.00
2023-01-27T15:12:09.195Z,42.00
2023-01-27T15:14:57.595Z,41.50
2023-01-27T15:17:46.342Z,40.30
2023-01-27T15:20:31.374Z,41.00
2023-01-27T15:23:21.145Z,41.00
2023-01-27T15:25:53.787Z,40.60
2023-01-27T15:28:29.438Z,40.90
2023-01-27T15:31:21.469Z,40.90
2023-01-27T15:33:56.288Z,41.10
2023-01-27T15:36:37.543Z,41.20
2023-01-27T15:39:25.987Z,40.90
2023-01-27T15:42:13.973Z,40.30
2023-01-27T15:44:59.299Z,40.10
2023-01-27T15:47:30.199Z,38.90
2023-01-27T15:50:08.285Z,38.40
2023-01-27T15:52:42.228Z,39.10
2023-01-27T15:55:24.803Z,40.00
2023-01-27T15:58:04.850Z,40.20
2023-01-27T16:00:35.998Z,39.80
2023-01-27T16:03:05.993Z,40.70
2023-01-27T16:05:38.333Z,40.90
2023-01-27T16:08:14.749Z,40.40
2023-01-27T16:10:43.781Z,41.20
2023-01-27T16:13:25.825Z,41.30
2023-01-27T16:16:31.588Z,40.80
2023-01-27T16:19:09.793Z,41.00
2023-01-27T16:21:44.364Z,41.10
2023-01-27T16:24:24.661Z,41.90
2023-01-27T16:26:57.429Z,41.30
2023-01-27T16:29:32.734Z,40.90
2023-01-27T16:32:05.387Z,40.30
2023-01-27T16:34:39.005Z,39.60
2023-01-27T16:37:19.605Z,39.70
2023-01-27T16:39:51.462Z,39.20
2023-01-27T16:42:19.825Z,39.00
2023-01-27T16:44:51.932Z,38.50
2023-01-27T16:47:25.555Z,38.00
2023-01-27T16:50:00.517Z,38.30
2023-01-27T16:52:41.729Z,38.90
2023-01-27T16:55:22.252Z,38.70
2023-01-27T16:57:51.604Z,38.50
2023-01-27T17:00:23.305Z,38.30
2023-01-27T17:02:52.455Z,38.80
2023-01-27T17:05:22.150Z,39.20
2023-01-27T17:08:08.284Z,39.50
2023-01-27T17:10:37.373Z,40.50
2023-01-27T17:13:05.300Z,40.00
2023-01-27T17:15:38.983Z,39.80
2023-01-27T17:18:11.603Z,40.00
2023-01-27T17:20:44.069Z,39.50
2023-01-27T17:23:23.104Z,39.30
2023-01-27T17:25:51.671Z,39.30
2023-01-27T17:28:26.414Z,39.70
2023-01-27T17:31:06.211Z,39.40
2023-01-27T17:33:36.583Z,38.80
2023-01-27T17:36:11.196Z,39.20
2023-01-27T17:38:48.516Z,39.40
2023-01-27T17:41:28.512Z,39.60
2023-01-27T17:44:01.508Z,40.30
2023-01-27T17:46:35.059Z,40.30
2023-01-27T17:49:06.722Z,40.90
2023-01-27T17:51:38.315Z,40.40
2023-01-27T17:54:20.276Z,40.60
2023-01-27T17:56:51.855Z,41.40
2023-01-27T17:59:22.496Z,41.70
2023-01-27T18:01:54.944Z,41.60
2023-01-27T18:04:24.251Z,41.60
2023-01-27T18:06:52.910Z,41.40
2023-01-27T18:09:25.294Z,40.90
2023-01-27T18:11:59.042Z,40.80
2023-01-27T18:14:30.569Z,40.80
2023-01-27T18:17:05.782Z,41.70
2023-01-27T18:19:34.805Z,41.60
2023-01-27T18:22:14.528Z,41.40
2023-01-27T18:24:51.236Z,41.90
2023-01-27T18:27:29.521Z,42.20
2023-01-27T18:30:02.067Z,42.00
2023-01-27T18:32:45.738Z,41.80
2023-01-27T18:35:32.279Z,41.40
2023-01-27T18:38:02.235Z,41.00
2023-01-27T18:40:32.789Z,40.70
2023-01-27T18:43:01.165Z,40.70
2023-01-27T18:45:29.557Z,40.90
2023-01-27T18:47:59.533Z,40.50
2023-01-27T18:50:28.818Z,40.50
2023-01-27T18:52:56.772Z,41.30
2023-01-27T18:55:26.903Z,41.50
2023-01-27T18:57:59.225Z,41.40
2023-01-27T19:00:30.129Z,41.40
2023-01-27T19:03:04.273Z,41.40
2023-01-27T19:05:33.938Z,41.10
2023-01-27T19:08:02.929Z,41.90
2023-01-27T19:10:34.527Z,42.70
2023-01-27T19:13:04.047Z,41.90
2023-01-27T19:15:34.216Z,41.90
2023-01-27T19:18:10.047Z,41.80
2023-01-27T19:20:38.036Z,42.10
2023-01-27T19:23:06.009Z,42.10
2023-01-27T19:25:33.965Z,42.20
2023-01-27T19:28:05.291Z,42.90
2023-01-27T19:30:36.972Z,42.50
2023-01-27T19:33:17.120Z,42.20
2023-01-27T19:35:47.446Z,42.90
2023-01-27T19:38:16.442Z,42.20
2023-01-27T19:40:45.677Z,42.30
2023-01-27T19:43:14.750Z,42.50
2023-01-27T19:45:43.849Z,42.50
2023-01-27T19:48:16.375Z,42.90
2023-01-27T19:50:44.936Z,42.70
2023-01-27T19:53:13.275Z,43.20
2023-01-27T19:55:41.555Z,42.70
2023-01-27T19:58:21.270Z,42.70
2023-01-27T20:00:50.013Z,42.10
2023-01-27T20:03:22.122Z,41.90
2023-01-27T20:05:50.520Z,42.50
2023-01-27T20:08:20.838Z,41.90
2023-01-27T20:10:48.806Z,42.00
2023-01-27T20:13:18.683Z,42.10
2023-01-27T20:15:47.838Z,41.50
2023-01-27T20:18:17.388Z,41.40
2023-01-27T20:20:47.237Z,41.50
2023-01-27T20:23:15.637Z,41.90
2023-01-27T20:25:43.585Z,40.60
2023-01-27T20:28:13.197Z,40.60
2023-01-27T20:30:42.385Z,39.90
2023-01-27T20:33:11.651Z,39.90
2023-01-27T20:35:39.665Z,39.50
2023-01-27T20:38:09.410Z,38.90
2023-01-27T20:40:37.491Z,38.50
2023-01-27T20:43:05.667Z,38.30
2023-01-27T20:45:33.704Z,38.30
2023-01-27T20:48:01.635Z,38.20
2023-01-27T20:50:33.060Z,37.90
2023-01-27T20:53:01.201Z,38.20
2023-01-27T20:55:31.463Z,38.90
2023-01-27T20:58:02.166Z,39.20
2023-01-27T21:00:30.474Z,39.50
2023-01-27T21:03:02.392Z,39.60
2023-01-27T21:05:30.369Z,40.00
2023-01-27T21:07:58.383Z,39.80
2023-01-27T21:10:28.093Z,39.50
2023-01-27T21:12:57.416Z,40.30
2023-01-27T21:15:25.399Z,40.60
2023-01-27T21:17:53.500Z,40.60
2023-01-27T21:20:21.515Z,40.10
2023-01-27T21:22:49.435Z,40.30
2023-01-27T21:25:18.203Z,39.80
2023-01-27T21:27:47.967Z,39.60
2023-01-27T21:30:17.712Z,39.10
2023-01-27T21:32:45.634Z,39.30
2023-01-27T21:35:13.857Z,38.30
2023-01-27T21:37:42.645Z,37.90
2023-01-27T21:40:12.025Z,37.80
2023-01-27T21:42:57.482Z,37.60
2023-01-27T21:45:26.833Z,37.60
2023-01-27T21:47:54.958Z,37.10
2023-01-27T21:50:22.919Z,37.40
2023-01-27T21:52:51.844Z,37.00
2023-01-27T21:55:21.663Z,36.80
2023-01-27T21:57:52.426Z,36.50
2023-01-27T22:00:22.438Z,36.60
2023-01-27T22:02:55.648Z,37.30
2023-01-27T22:05:24.486Z,37.40
2023-01-27T22:07:53.631Z,37.60
2023-01-27T22:10:23.194Z,37.70
2023-01-27T22:12:51.542Z,38.10
2023-01-27T22:15:24.241Z,38.40
2023-01-27T22:17:52.181Z,39.00
2023-01-27T22:20:24.119Z,39.40
2023-01-27T22:22:52.229Z,39.30
2023-01-27T22:25:20.502Z,39.50
2023-01-27T22:27:48.484Z,39.40
2023-01-27T22:30:18.735Z,39.30
2023-01-27T22:32:47.999Z,39.60
2023-01-27T22:35:18.128Z,40.30
2023-01-27T22:37:48.976Z,40.70
2023-01-27T22:40:17.207Z,40.50
2023-01-27T22:42:45.404Z,41.00
2023-01-27T22:45:13.864Z,40.90
2023-01-27T22:47:41.941Z,41.30
2023-01-27T22:50:11.745Z,42.50
2023-01-27T22:52:40.369Z,41.90
2023-01-27T22:55:12.325Z,41.60
2023-01-27T22:57:40.599Z,42.00
2023-01-27T23:00:10.336Z,41.50
2023-01-27T23:02:38.576Z,41.40
2023-01-27T23:05:07.450Z,42.30
2023-01-27T23:07:35.369Z,42.20
2023-01-27T23:10:03.324Z,42.30
2023-01-27T23:12:32.698Z,42.50
2023-01-27T23:15:02.364Z,42.40
2023-01-27T23:17:30.282Z,42.50
2023-01-27T23:20:00.480Z,42.40
2023-01-27T23:22:28.412Z,42.40
2023-01-27T23:24:56.346Z,41.90
2023-01-27T23:27:24.535Z,42.00
2023-01-27T23:29:53.807Z,41.90
2023-01-27T23:32:23.769Z,41.60
2023-01-27T23:34:51.970Z,41.00
2023-01-27T23:37:19.888Z,41.30
2023-01-27T23:39:49.558Z,41.30
2023-01-27T23:42:17.848Z,41.80
2023-01-27T23:44:46.142Z,41.20
2023-01-27T23:47:17.120Z,41.60
2023-01-27T23:49:45.061Z,41.30
2023-01-27T23:52:12.984Z,41.80
2023-01-27T23:54:40.901Z,42.20
2023-01-27T23:57:08.819Z,41.60
2023-01-27T23:59:36.759Z,42.00
